sensor_id;sensor_type;location;lat;lon;timestamp;pressure;altitude;pressure_sealevel;temperature;humidity
31121;BME280;17770;45.966;13.632;2023-06-19T00:01:58;100540.41;;;28.71;40.32
31121;BME280;17770;45.966;13.632;2023-06-19T00:04:24;100531.63;;;28.71;40.25
31121;BME280;17770;45.966;13.632;2023-06-19T00:06:50;100539.72;;;28.69;40.47
31121;BME280;17770;45.966;13.632;2023-06-19T00:09:16;100531.44;;;28.64;40.29
31121;BME280;17770;45.966;13.632;2023-06-19T00:11:42;100532.41;;;28.63;39.99
31121;BME280;17770;45.966;13.632;2023-06-19T00:14:08;100530.41;;;28.65;40.10
31121;BME280;17770;45.966;13.632;2023-06-19T00:16:34;100532.56;;;28.62;40.18
31121;BME280;17770;45.966;13.632;2023-06-19T00:19:00;100524.75;;;28.60;39.93
31121;BME280;17770;45.966;13.632;2023-06-19T00:21:29;100523.09;;;28.59;39.96
31121;BME280;17770;45.966;13.632;2023-06-19T00:23:55;100525.88;;;28.58;39.82
31121;BME280;17770;45.966;13.632;2023-06-19T00:26:21;100518.06;;;28.56;40.09
31121;BME280;17770;45.966;13.632;2023-06-19T00:28:51;100517.41;;;28.54;39.72
31121;BME280;17770;45.966;13.632;2023-06-19T00:31:17;100506.97;;;28.53;39.58
31121;BME280;17770;45.966;13.632;2023-06-19T00:33:44;100523.00;;;28.51;39.78
31121;BME280;17770;45.966;13.632;2023-06-19T00:36:11;100521.34;;;28.50;39.69
31121;BME280;17770;45.966;13.632;2023-06-19T00:38:38;100526.50;;;28.52;39.50
31121;BME280;17770;45.966;13.632;2023-06-19T00:41:04;100526.66;;;28.50;39.51
31121;BME280;17770;45.966;13.632;2023-06-19T00:43:30;100531.13;;;28.50;39.57
31121;BME280;17770;45.966;13.632;2023-06-19T00:46:00;100526.78;;;28.49;39.72
31121;BME280;17770;45.966;13.632;2023-06-19T00:48:27;100533.22;;;28.46;39.81
31121;BME280;17770;45.966;13.632;2023-06-19T00:50:53;100528.06;;;28.45;39.78
31121;BME280;17770;45.966;13.632;2023-06-19T00:53:19;100527.28;;;28.44;39.70
31121;BME280;17770;45.966;13.632;2023-06-19T00:55:46;100527.28;;;28.44;39.99
31121;BME280;17770;45.966;13.632;2023-06-19T00:58:12;100519.47;;;28.43;39.89
31121;BME280;17770;45.966;13.632;2023-06-19T01:00:38;100519.59;;;28.41;40.08
31121;BME280;17770;45.966;13.632;2023-06-19T01:03:03;100528.56;;;28.40;40.00
31121;BME280;17770;45.966;13.632;2023-06-19T01:05:29;100518.94;;;28.39;40.00
31121;BME280;17770;45.966;13.632;2023-06-19T01:08:03;100517.25;;;28.38;39.66
31121;BME280;17770;45.966;13.632;2023-06-19T01:10:32;100514.75;;;28.37;39.91
31121;BME280;17770;45.966;13.632;2023-06-19T01:13:24;100518.41;;;28.36;40.02
31121;BME280;17770;45.966;13.632;2023-06-19T01:15:46;100514.06;;;28.35;40.14
31121;BME280;17770;45.966;13.632;2023-06-19T01:18:13;100521.22;;;28.34;40.13
31121;BME280;17770;45.966;13.632;2023-06-19T01:20:42;100527.66;;;28.32;39.91
31121;BME280;17770;45.966;13.632;2023-06-19T01:23:08;100533.28;;;28.29;39.83
31121;BME280;17770;45.966;13.632;2023-06-19T01:25:35;100528.13;;;28.27;39.96
31121;BME280;17770;45.966;13.632;2023-06-19T01:28:02;100524.78;;;28.25;39.75
31121;BME280;17770;45.966;13.632;2023-06-19T01:30:29;100517.81;;;28.24;39.96
31121;BME280;17770;45.966;13.632;2023-06-19T01:35:42;100523.44;;;28.21;39.56
31121;BME280;17770;45.966;13.632;2023-06-19T01:38:08;100513.00;;;28.20;39.50
31121;BME280;17770;45.966;13.632;2023-06-19T01:40:35;100513.13;;;28.18;39.20
31121;BME280;17770;45.966;13.632;2023-06-19T01:43:02;100507.97;;;28.16;39.12
31121;BME280;17770;45.966;13.632;2023-06-19T01:45:30;100511.78;;;28.14;39.15
31121;BME280;17770;45.966;13.632;2023-06-19T01:47:56;100512.78;;;28.13;39.38
31121;BME280;17770;45.966;13.632;2023-06-19T01:50:23;100510.25;;;28.11;39.13
31121;BME280;17770;45.966;13.632;2023-06-19T01:52:50;100518.19;;;28.11;39.10
31121;BME280;17770;45.966;13.632;2023-06-19T01:55:16;100509.59;;;28.09;39.15
31121;BME280;17770;45.966;13.632;2023-06-19T01:57:42;100514.06;;;28.09;38.93
31121;BME280;17770;45.966;13.632;2023-06-19T02:00:08;100513.38;;;28.07;39.09
31121;BME280;17770;45.966;13.632;2023-06-19T02:02:39;100510.03;;;28.05;39.26
31121;BME280;17770;45.966;13.632;2023-06-19T02:05:05;100503.06;;;28.04;39.22
31121;BME280;17770;45.966;13.632;2023-06-19T02:07:31;100516.31;;;28.04;38.79
31121;BME280;17770;45.966;13.632;2023-06-19T02:09:57;100514.69;;;28.03;39.02
31121;BME280;17770;45.966;13.632;2023-06-19T02:12:23;100513.16;;;28.00;39.00
31121;BME280;17770;45.966;13.632;2023-06-19T02:14:49;100520.41;;;27.98;38.71
31121;BME280;17770;45.966;13.632;2023-06-19T02:17:15;100518.75;;;27.97;39.37
31121;BME280;17770;45.966;13.632;2023-06-19T02:19:41;100522.41;;;27.96;39.20
31121;BME280;17770;45.966;13.632;2023-06-19T02:22:06;100516.41;;;27.94;39.00
31121;BME280;17770;45.966;13.632;2023-06-19T02:24:32;100521.19;;;27.91;39.18
31121;BME280;17770;45.966;13.632;2023-06-19T02:26:58;100523.84;;;27.91;38.95
31121;BME280;17770;45.966;13.632;2023-06-19T02:29:24;100519.50;;;27.90;39.21
31121;BME280;17770;45.966;13.632;2023-06-19T02:31:50;100519.78;;;27.87;39.17
31121;BME280;17770;45.966;13.632;2023-06-19T02:34:16;100518.28;;;27.84;39.15
31121;BME280;17770;45.966;13.632;2023-06-19T02:36:42;100524.28;;;27.86;39.36
31121;BME280;17770;45.966;13.632;2023-06-19T02:39:08;100527.34;;;27.82;38.91
31121;BME280;17770;45.966;13.632;2023-06-19T02:41:34;100525.69;;;27.81;39.08
31121;BME280;17770;45.966;13.632;2023-06-19T02:44:02;100530.16;;;27.80;38.92
31121;BME280;17770;45.966;13.632;2023-06-19T02:46:28;100527.66;;;27.79;39.18
31121;BME280;17770;45.966;13.632;2023-06-19T02:48:54;100533.13;;;27.77;39.07
31121;BME280;17770;45.966;13.632;2023-06-19T02:51:21;100520.84;;;27.76;39.13
31121;BME280;17770;45.966;13.632;2023-06-19T02:53:47;100523.66;;;27.75;38.96
31121;BME280;17770;45.966;13.632;2023-06-19T02:56:13;100518.47;;;27.73;38.64
31121;BME280;17770;45.966;13.632;2023-06-19T02:58:39;100520.31;;;27.73;39.12
31121;BME280;17770;45.966;13.632;2023-06-19T03:01:05;100511.69;;;27.71;39.04
31121;BME280;17770;45.966;13.632;2023-06-19T03:03:34;100525.09;;;27.69;38.81
31121;BME280;17770;45.966;13.632;2023-06-19T03:06:04;100524.41;;;27.67;38.79
31121;BME280;17770;45.966;13.632;2023-06-19T03:08:30;100516.59;;;27.66;38.80
31121;BME280;17770;45.966;13.632;2023-06-19T03:10:56;100525.69;;;27.63;38.88
31121;BME280;17770;45.966;13.632;2023-06-19T03:13:22;100522.19;;;27.63;38.76
31121;BME280;17770;45.966;13.632;2023-06-19T03:15:48;100526.66;;;27.62;38.95
31121;BME280;17770;45.966;13.632;2023-06-19T03:18:13;100536.41;;;27.62;38.47
31121;BME280;17770;45.966;13.632;2023-06-19T03:20:39;100537.56;;;27.59;38.70
31121;BME280;17770;45.966;13.632;2023-06-19T03:23:05;100541.22;;;27.58;38.74
31121;BME280;17770;45.966;13.632;2023-06-19T03:25:32;100537.88;;;27.56;38.71
31121;BME280;17770;45.966;13.632;2023-06-19T03:28:01;100536.34;;;27.54;38.81
31121;BME280;17770;45.966;13.632;2023-06-19T03:30:28;100549.59;;;27.54;38.57
31121;BME280;17770;45.966;13.632;2023-06-19T03:32:54;100546.28;;;27.52;38.84
31121;BME280;17770;45.966;13.632;2023-06-19T03:35:35;100545.44;;;27.51;38.63
31121;BME280;17770;45.966;13.632;2023-06-19T03:38:02;100537.78;;;27.48;38.45
31121;BME280;17770;45.966;13.632;2023-06-19T03:40:29;100544.88;;;27.48;38.71
31121;BME280;17770;45.966;13.632;2023-06-19T03:42:55;100545.88;;;27.47;38.48
31121;BME280;17770;45.966;13.632;2023-06-19T03:45:23;100543.38;;;27.45;38.73
31121;BME280;17770;45.966;13.632;2023-06-19T03:47:49;100550.66;;;27.43;38.78
31121;BME280;17770;45.966;13.632;2023-06-19T03:50:15;100548.97;;;27.42;38.63
31121;BME280;17770;45.966;13.632;2023-06-19T03:52:41;100552.59;;;27.41;38.63
31121;BME280;17770;45.966;13.632;2023-06-19T03:55:07;100554.56;;;27.39;38.50
31121;BME280;17770;45.966;13.632;2023-06-19T03:57:34;100552.75;;;27.40;38.85
31121;BME280;17770;45.966;13.632;2023-06-19T04:00:00;100552.22;;;27.36;38.61
31121;BME280;17770;45.966;13.632;2023-06-19T04:02:26;100553.88;;;27.37;38.63
31121;BME280;17770;45.966;13.632;2023-06-19T04:04:52;100552.22;;;27.36;38.33
31121;BME280;17770;45.966;13.632;2023-06-19T04:07:18;100553.31;;;27.34;38.70
31121;BME280;17770;45.966;13.632;2023-06-19T04:09:43;100554.16;;;27.34;38.58
31121;BME280;17770;45.966;13.632;2023-06-19T04:12:09;100549.00;;;27.33;38.67
31121;BME280;17770;45.966;13.632;2023-06-19T04:14:35;100560.59;;;27.32;38.45
31121;BME280;17770;45.966;13.632;2023-06-19T04:17:01;100549.16;;;27.31;38.77
31121;BME280;17770;45.966;13.632;2023-06-19T04:19:27;100551.13;;;27.29;38.68
31121;BME280;17770;45.966;13.632;2023-06-19T04:21:53;100549.59;;;27.27;38.58
31121;BME280;17770;45.966;13.632;2023-06-19T04:24:20;100557.53;;;27.27;39.01
31121;BME280;17770;45.966;13.632;2023-06-19T04:26:46;100556.00;;;27.24;38.66
31121;BME280;17770;45.966;13.632;2023-06-19T04:29:12;100553.50;;;27.23;38.63
31121;BME280;17770;45.966;13.632;2023-06-19T04:31:45;100552.78;;;27.21;38.79
31121;BME280;17770;45.966;13.632;2023-06-19T04:34:13;100548.50;;;27.20;38.61
31121;BME280;17770;45.966;13.632;2023-06-19T04:36:40;100549.50;;;27.19;38.66
31121;BME280;17770;45.966;13.632;2023-06-19T04:39:06;100553.09;;;27.18;38.75
31121;BME280;17770;45.966;13.632;2023-06-19T04:41:32;100556.03;;;27.15;38.58
31121;BME280;17770;45.966;13.632;2023-06-19T04:43:58;100554.25;;;27.15;38.57
31121;BME280;17770;45.966;13.632;2023-06-19T04:46:24;100550.34;;;27.10;38.55
31121;BME280;17770;45.966;13.632;2023-06-19T04:48:50;100548.53;;;27.10;38.79
31121;BME280;17770;45.966;13.632;2023-06-19T04:51:16;100549.50;;;27.09;38.55
31121;BME280;17770;45.966;13.632;2023-06-19T04:53:46;100558.44;;;27.08;38.40
31121;BME280;17770;45.966;13.632;2023-06-19T04:56:13;100546.19;;;27.07;38.57
31121;BME280;17770;45.966;13.632;2023-06-19T04:58:39;100557.75;;;27.06;38.75
31121;BME280;17770;45.966;13.632;2023-06-19T05:01:14;100558.75;;;27.05;38.63
31121;BME280;17770;45.966;13.632;2023-06-19T05:03:40;100564.03;;;27.05;38.79
31121;BME280;17770;45.966;13.632;2023-06-19T05:06:06;100558.88;;;27.04;38.82
31121;BME280;17770;45.966;13.632;2023-06-19T05:08:32;100559.03;;;27.02;38.55
31121;BME280;17770;45.966;13.632;2023-06-19T05:10:58;100562.78;;;27.00;38.70
31121;BME280;17770;45.966;13.632;2023-06-19T05:13:24;100561.94;;;26.99;38.85
31121;BME280;17770;45.966;13.632;2023-06-19T05:15:49;100573.53;;;26.98;38.86
31121;BME280;17770;45.966;13.632;2023-06-19T05:18:18;100572.53;;;26.99;38.68
31121;BME280;17770;45.966;13.632;2023-06-19T05:20:44;100571.72;;;26.99;39.07
31121;BME280;17770;45.966;13.632;2023-06-19T05:23:10;100573.53;;;26.98;38.70
31121;BME280;17770;45.966;13.632;2023-06-19T05:25:36;100576.31;;;26.97;38.98
31121;BME280;17770;45.966;13.632;2023-06-19T05:28:02;100572.81;;;26.96;38.88
31121;BME280;17770;45.966;13.632;2023-06-19T05:30:28;100572.97;;;26.94;38.89
31121;BME280;17770;45.966;13.632;2023-06-19T05:32:54;100565.72;;;26.97;38.85
31121;BME280;17770;45.966;13.632;2023-06-19T05:35:19;100569.63;;;27.02;38.37
31121;BME280;17770;45.966;13.632;2023-06-19T05:37:45;100575.72;;;27.03;38.82
31121;BME280;17770;45.966;13.632;2023-06-19T05:40:11;100571.28;;;27.03;38.58
31121;BME280;17770;45.966;13.632;2023-06-19T05:42:37;100567.63;;;27.04;38.74
31121;BME280;17770;45.966;13.632;2023-06-19T05:45:03;100574.78;;;27.04;38.59
31121;BME280;17770;45.966;13.632;2023-06-19T05:47:29;100573.09;;;27.03;38.68
31121;BME280;17770;45.966;13.632;2023-06-19T05:49:56;100574.06;;;27.02;38.96
31121;BME280;17770;45.966;13.632;2023-06-19T05:52:22;100572.53;;;26.99;39.08
31121;BME280;17770;45.966;13.632;2023-06-19T05:54:48;100570.72;;;27.00;38.69
31121;BME280;17770;45.966;13.632;2023-06-19T05:57:14;100575.06;;;27.01;38.80
31121;BME280;17770;45.966;13.632;2023-06-19T05:59:46;100567.25;;;26.99;39.14
31121;BME280;17770;45.966;13.632;2023-06-19T06:02:12;100567.25;;;26.99;38.86
31121;BME280;17770;45.966;13.632;2023-06-19T06:04:38;100575.34;;;26.98;38.90
31121;BME280;17770;45.966;13.632;2023-06-19T06:07:04;100570.47;;;26.93;39.17
31121;BME280;17770;45.966;13.632;2023-06-19T06:09:31;100568.81;;;26.92;39.30
31121;BME280;17770;45.966;13.632;2023-06-19T06:11:58;100567.97;;;26.91;39.26
31121;BME280;17770;45.966;13.632;2023-06-19T06:14:25;100568.97;;;26.90;39.11
31121;BME280;17770;45.966;13.632;2023-06-19T06:16:51;100568.13;;;26.90;39.39
31121;BME280;17770;45.966;13.632;2023-06-19T06:19:18;100567.28;;;26.89;39.00
31121;BME280;17770;45.966;13.632;2023-06-19T06:21:43;100576.91;;;26.90;39.33
31121;BME280;17770;45.966;13.632;2023-06-19T06:24:09;100576.91;;;26.90;39.42
31121;BME280;17770;45.966;13.632;2023-06-19T06:26:35;100576.91;;;26.90;38.94
31121;BME280;17770;45.966;13.632;2023-06-19T06:29:02;100573.41;;;26.90;39.44
31121;BME280;17770;45.966;13.632;2023-06-19T06:31:28;100575.22;;;26.89;39.33
31121;BME280;17770;45.966;13.632;2023-06-19T06:33:54;100571.75;;;26.89;39.28
31121;BME280;17770;45.966;13.632;2023-06-19T06:36:20;100571.63;;;26.90;39.43
31121;BME280;17770;45.966;13.632;2023-06-19T06:38:45;100574.25;;;26.90;39.62
31121;BME280;17770;45.966;13.632;2023-06-19T06:41:11;100571.63;;;26.90;39.65
31121;BME280;17770;45.966;13.632;2023-06-19T06:43:37;100567.13;;;26.91;39.41
31121;BME280;17770;45.966;13.632;2023-06-19T06:46:04;100582.06;;;26.92;39.73
31121;BME280;17770;45.966;13.632;2023-06-19T06:48:30;100575.91;;;26.91;39.67
31121;BME280;17770;45.966;13.632;2023-06-19T06:50:56;100574.13;;;26.92;39.41
31121;BME280;17770;45.966;13.632;2023-06-19T06:53:27;100568.81;;;26.92;39.76
31121;BME280;17770;45.966;13.632;2023-06-19T06:55:54;100566.03;;;26.93;39.83
31121;BME280;17770;45.966;13.632;2023-06-19T06:58:19;100570.47;;;26.93;39.72
31121;BME280;17770;45.966;13.632;2023-06-19T07:00:45;100570.47;;;26.93;39.61
31121;BME280;17770;45.966;13.632;2023-06-19T07:03:11;100571.31;;;26.93;39.50
31121;BME280;17770;45.966;13.632;2023-06-19T07:05:37;100566.84;;;26.94;39.90
31121;BME280;17770;45.966;13.632;2023-06-19T07:08:03;100570.31;;;26.94;39.94
31121;BME280;17770;45.966;13.632;2023-06-19T07:10:29;100582.72;;;26.94;39.63
31121;BME280;17770;45.966;13.632;2023-06-19T07:12:55;100579.13;;;26.95;39.58
31121;BME280;17770;45.966;13.632;2023-06-19T07:15:21;100574.66;;;26.96;39.73
31121;BME280;17770;45.966;13.632;2023-06-19T07:17:47;100566.72;;;26.96;39.71
31121;BME280;17770;45.966;13.632;2023-06-19T07:20:14;100572.69;;;26.98;39.74
31121;BME280;17770;45.966;13.632;2023-06-19T07:22:40;100567.38;;;26.98;39.43
31121;BME280;17770;45.966;13.632;2023-06-19T07:25:06;100569.88;;;26.99;39.86
31121;BME280;17770;45.966;13.632;2023-06-19T07:27:33;100570.28;;;27.04;39.82
31121;BME280;17770;45.966;13.632;2023-06-19T07:29:58;100570.03;;;27.07;39.79
31121;BME280;17770;45.966;13.632;2023-06-19T07:32:24;100571.69;;;27.08;39.61
31121;BME280;17770;45.966;13.632;2023-06-19T07:34:50;100574.19;;;27.10;39.81
31121;BME280;17770;45.966;13.632;2023-06-19T07:37:16;100569.72;;;27.10;39.49
31121;BME280;17770;45.966;13.632;2023-06-19T07:39:46;100568.75;;;27.11;39.82
31121;BME280;17770;45.966;13.632;2023-06-19T07:42:13;100565.13;;;27.12;39.68
31121;BME280;17770;45.966;13.632;2023-06-19T07:44:39;100571.25;;;27.13;39.67
31121;BME280;17770;45.966;13.632;2023-06-19T07:47:05;100569.28;;;27.15;39.80
31121;BME280;17770;45.966;13.632;2023-06-19T07:49:31;100569.13;;;27.16;39.74
31121;BME280;17770;45.966;13.632;2023-06-19T07:51:57;100569.00;;;27.18;39.95
31121;BME280;17770;45.966;13.632;2023-06-19T07:54:22;100561.03;;;27.18;39.73
31121;BME280;17770;45.966;13.632;2023-06-19T07:56:48;100569.84;;;27.18;39.64
31121;BME280;17770;45.966;13.632;2023-06-19T07:59:14;100566.19;;;27.19;39.71
31121;BME280;17770;45.966;13.632;2023-06-19T08:01:40;100566.88;;;27.21;40.01
31121;BME280;17770;45.966;13.632;2023-06-19T08:04:06;100565.09;;;27.22;39.97
31121;BME280;17770;45.966;13.632;2023-06-19T08:06:32;100572.88;;;27.23;40.26
31121;BME280;17770;45.966;13.632;2023-06-19T08:08:58;100564.94;;;27.23;39.82
31121;BME280;17770;45.966;13.632;2023-06-19T08:11:23;100571.75;;;27.26;39.83
31121;BME280;17770;45.966;13.632;2023-06-19T08:13:49;100570.78;;;27.27;39.88
31121;BME280;17770;45.966;13.632;2023-06-19T08:16:15;100570.66;;;27.28;39.70
31121;BME280;17770;45.966;13.632;2023-06-19T08:18:41;100567.88;;;27.30;39.76
31121;BME280;17770;45.966;13.632;2023-06-19T08:21:08;100562.56;;;27.30;39.92
31121;BME280;17770;45.966;13.632;2023-06-19T08:23:33;100566.06;;;27.30;39.98
31121;BME280;17770;45.966;13.632;2023-06-19T08:25:59;100562.25;;;27.33;39.93
31121;BME280;17770;45.966;13.632;2023-06-19T08:28:25;100559.47;;;27.34;39.76
31121;BME280;17770;45.966;13.632;2023-06-19T08:30:51;100558.34;;;27.37;39.83
31121;BME280;17770;45.966;13.632;2023-06-19T08:33:17;100562.66;;;27.38;39.75
31121;BME280;17770;45.966;13.632;2023-06-19T08:35:43;100559.84;;;27.39;39.76
31121;BME280;17770;45.966;13.632;2023-06-19T08:38:10;100563.19;;;27.41;39.84
31121;BME280;17770;45.966;13.632;2023-06-19T08:40:36;100552.44;;;27.43;40.23
31121;BME280;17770;45.966;13.632;2023-06-19T08:43:01;100557.44;;;27.46;40.11
31121;BME280;17770;45.966;13.632;2023-06-19T08:45:28;100557.44;;;27.46;39.96
31121;BME280;17770;45.966;13.632;2023-06-19T08:48:03;100553.84;;;27.47;40.03
31121;BME280;17770;45.966;13.632;2023-06-19T08:50:39;100555.50;;;27.48;40.20
31121;BME280;17770;45.966;13.632;2023-06-19T08:53:05;100558.84;;;27.50;39.96
31121;BME280;17770;45.966;13.632;2023-06-19T08:55:30;100557.84;;;27.51;39.72
31121;BME280;17770;45.966;13.632;2023-06-19T08:57:56;100551.56;;;27.52;39.84
31121;BME280;17770;45.966;13.632;2023-06-19T09:00:25;100557.53;;;27.54;40.42
31121;BME280;17770;45.966;13.632;2023-06-19T09:02:52;100556.72;;;27.53;40.10
31121;BME280;17770;45.966;13.632;2023-06-19T09:05:18;100559.22;;;27.55;40.41
31121;BME280;17770;45.966;13.632;2023-06-19T09:07:53;100554.72;;;27.55;40.08
31121;BME280;17770;45.966;13.632;2023-06-19T09:10:19;100551.81;;;27.58;40.33
31121;BME280;17770;45.966;13.632;2023-06-19T09:13:03;100548.88;;;27.61;40.03
31121;BME280;17770;45.966;13.632;2023-06-19T09:15:30;100549.56;;;27.63;40.54
31121;BME280;17770;45.966;13.632;2023-06-19T09:18:16;100554.69;;;27.65;41.00
31121;BME280;17770;45.966;13.632;2023-06-19T09:20:42;100551.75;;;27.68;41.04
31121;BME280;17770;45.966;13.632;2023-06-19T09:23:11;100544.34;;;27.71;40.66
31121;BME280;17770;45.966;13.632;2023-06-19T09:25:47;100546.00;;;27.72;40.43
31121;BME280;17770;45.966;13.632;2023-06-19T09:28:16;100539.56;;;27.75;40.76
31121;BME280;17770;45.966;13.632;2023-06-19T09:30:51;100549.72;;;27.79;40.75
31121;BME280;17770;45.966;13.632;2023-06-19T09:33:17;100544.41;;;27.79;41.17
31121;BME280;17770;45.966;13.632;2023-06-19T09:35:43;100540.47;;;27.83;41.02
31121;BME280;17770;45.966;13.632;2023-06-19T09:38:08;100550.94;;;27.85;40.60
31121;BME280;17770;45.966;13.632;2023-06-19T09:40:34;100541.00;;;27.87;40.91
31121;BME280;17770;45.966;13.632;2023-06-19T09:43:01;100548.66;;;27.90;41.19
31121;BME280;17770;45.966;13.632;2023-06-19T09:45:29;100545.91;;;27.91;41.05
31121;BME280;17770;45.966;13.632;2023-06-19T09:47:56;100538.44;;;27.95;41.33
31121;BME280;17770;45.966;13.632;2023-06-19T09:50:26;100541.78;;;27.97;41.43
31121;BME280;17770;45.966;13.632;2023-06-19T09:52:54;100541.47;;;28.00;41.19
31121;BME280;17770;45.966;13.632;2023-06-19T09:55:20;100540.19;;;28.04;41.87
31121;BME280;17770;45.966;13.632;2023-06-19T09:57:49;100533.75;;;28.06;41.35
31121;BME280;17770;45.966;13.632;2023-06-19T10:00:16;100541.41;;;28.09;41.61
31121;BME280;17770;45.966;13.632;2023-06-19T10:02:48;100537.47;;;28.13;41.64
31121;BME280;17770;45.966;13.632;2023-06-19T10:05:14;100537.16;;;28.16;41.91
31121;BME280;17770;45.966;13.632;2023-06-19T10:07:41;100542.97;;;28.20;41.96
31121;BME280;17770;45.966;13.632;2023-06-19T10:10:08;100530.41;;;28.22;41.85
31121;BME280;17770;45.966;13.632;2023-06-19T10:12:41;100532.59;;;28.27;41.83
31121;BME280;17770;45.966;13.632;2023-06-19T10:15:11;100530.47;;;28.30;42.50
31121;BME280;17770;45.966;13.632;2023-06-19T10:17:37;100537.31;;;28.33;42.01
31121;BME280;17770;45.966;13.632;2023-06-19T10:20:03;100535.97;;;28.37;42.28
31121;BME280;17770;45.966;13.632;2023-06-19T10:22:30;100534.03;;;28.39;41.77
31121;BME280;17770;45.966;13.632;2023-06-19T10:24:56;100524.25;;;28.39;42.39
31121;BME280;17770;45.966;13.632;2023-06-19T10:27:24;100527.44;;;28.43;41.57
31121;BME280;17770;45.966;13.632;2023-06-19T10:29:54;100531.72;;;28.44;42.11
31121;BME280;17770;45.966;13.632;2023-06-19T10:32:20;100532.25;;;28.47;42.37
31121;BME280;17770;45.966;13.632;2023-06-19T10:34:47;100522.19;;;28.51;42.01
31121;BME280;17770;45.966;13.632;2023-06-19T10:37:13;100523.53;;;28.55;43.16
31121;BME280;17770;45.966;13.632;2023-06-19T10:39:39;100522.56;;;28.56;42.21
31121;BME280;17770;45.966;13.632;2023-06-19T10:42:06;100515.25;;;28.58;41.60
31121;BME280;17770;45.966;13.632;2023-06-19T10:44:32;100517.91;;;28.58;42.03
31121;BME280;17770;45.966;13.632;2023-06-19T10:46:58;100514.13;;;28.60;42.07
31121;BME280;17770;45.966;13.632;2023-06-19T10:49:24;100512.97;;;28.63;42.83
31121;BME280;17770;45.966;13.632;2023-06-19T10:51:50;100519.63;;;28.67;41.79
31121;BME280;17770;45.966;13.632;2023-06-19T10:54:16;100509.88;;;28.67;42.16
31121;BME280;17770;45.966;13.632;2023-06-19T10:56:42;100507.56;;;28.72;42.65
31121;BME280;17770;45.966;13.632;2023-06-19T10:59:09;100507.09;;;28.77;43.39
31121;BME280;17770;45.966;13.632;2023-06-19T11:01:37;100499.47;;;28.82;43.51
31121;BME280;17770;45.966;13.632;2023-06-19T11:04:07;100501.81;;;28.85;43.31
31121;BME280;17770;45.966;13.632;2023-06-19T11:06:34;100498.16;;;28.86;42.72
31121;BME280;17770;45.966;13.632;2023-06-19T11:09:00;100502.50;;;28.87;42.71
31121;BME280;17770;45.966;13.632;2023-06-19T11:11:36;100507.13;;;28.85;43.50
31121;BME280;17770;45.966;13.632;2023-06-19T11:14:02;100511.31;;;28.87;43.67
31121;BME280;17770;45.966;13.632;2023-06-19T11:16:28;100502.00;;;28.91;43.85
31121;BME280;17770;45.966;13.632;2023-06-19T11:18:57;100499.72;;;28.96;44.18
31121;BME280;17770;45.966;13.632;2023-06-19T11:21:32;100494.06;;;28.99;43.18
31121;BME280;17770;45.966;13.632;2023-06-19T11:24:02;100498.78;;;29.05;44.57
31121;BME280;17770;45.966;13.632;2023-06-19T11:26:28;100496.63;;;29.09;44.27
31121;BME280;17770;45.966;13.632;2023-06-19T11:28:54;100511.94;;;29.15;44.36
31121;BME280;17770;45.966;13.632;2023-06-19T11:31:26;100508.28;;;29.16;44.21
31121;BME280;17770;45.966;13.632;2023-06-19T11:33:56;100508.13;;;29.17;44.19
31121;BME280;17770;45.966;13.632;2023-06-19T11:36:23;100504.34;;;29.20;44.46
31121;BME280;17770;45.966;13.632;2023-06-19T11:38:51;100509.31;;;29.23;44.97
31121;BME280;17770;45.966;13.632;2023-06-19T11:41:27;100504.19;;;29.29;45.65
31121;BME280;17770;45.966;13.632;2023-06-19T11:44:00;100505.38;;;29.35;45.61
31121;BME280;17770;45.966;13.632;2023-06-19T11:46:30;100505.56;;;29.42;46.64
31121;BME280;17770;45.966;13.632;2023-06-19T11:49:06;100507.72;;;29.46;45.85
31121;BME280;17770;45.966;13.632;2023-06-19T11:51:32;100510.06;;;29.49;45.59
31121;BME280;17770;45.966;13.632;2023-06-19T11:53:58;100510.56;;;29.53;45.22
31121;BME280;17770;45.966;13.632;2023-06-19T11:56:24;100506.25;;;29.52;44.53
31121;BME280;17770;45.966;13.632;2023-06-19T11:58:50;100510.41;;;29.54;44.43
31121;BME280;17770;45.966;13.632;2023-06-19T12:01:16;100505.75;;;29.56;46.30
31121;BME280;17770;45.966;13.632;2023-06-19T12:03:41;100500.78;;;29.61;46.00
31121;BME280;17770;45.966;13.632;2023-06-19T12:06:07;100509.66;;;29.70;46.68
31121;BME280;17770;45.966;13.632;2023-06-19T12:08:33;100513.78;;;29.72;45.70
31121;BME280;17770;45.966;13.632;2023-06-19T12:10:59;100509.47;;;29.71;44.31
31121;BME280;17770;45.966;13.632;2023-06-19T12:13:25;100510.31;;;29.72;45.28
31121;BME280;17770;45.966;13.632;2023-06-19T12:15:50;100507.69;;;29.80;40.02
31121;BME280;17770;45.966;13.632;2023-06-19T12:18:16;100509.59;;;29.62;40.25
31121;BME280;17770;45.966;13.632;2023-06-19T12:20:42;100517.41;;;29.55;39.96
31121;BME280;17770;45.966;13.632;2023-06-19T12:23:08;100518.78;;;29.67;40.96
31121;BME280;17770;45.966;13.632;2023-06-19T12:25:34;100512.16;;;29.79;41.76
31121;BME280;17770;45.966;13.632;2023-06-19T12:28:00;100521.47;;;29.83;42.15
31121;BME280;17770;45.966;13.632;2023-06-19T12:30:26;100513.34;;;29.85;42.59
31121;BME280;17770;45.966;13.632;2023-06-19T12:32:51;100519.13;;;29.80;42.50
31121;BME280;17770;45.966;13.632;2023-06-19T12:35:17;100523.63;;;29.72;42.29
31121;BME280;17770;45.966;13.632;2023-06-19T12:37:43;100520.97;;;29.88;42.80
31121;BME280;17770;45.966;13.632;2023-06-19T12:40:09;100523.81;;;29.86;43.40
31121;BME280;17770;45.966;13.632;2023-06-19T12:42:36;100518.97;;;29.82;43.56